Time;durP1;ratioP1;P1;durP2;ratioP2;P2;SDS_P1;SDS_P2;PMS_P1;PMS_P2;Temp;Humidity;BMP_temperature;BMP_pressure;BME280_temperature;BME280_humidity;BME280_pressure;Samples;Min_cycle;Max_cycle;Signal;HPM_P1;HPM_P2
2021/07/23 00:00:31;;;;;;;;;13.50;13.50;;;;;;;;8897527;40;10698;-65
2021/07/23 00:06:35;;;;;;;;;12.75;12.25;;;;;;;;8886441;40;11229;-64
2021/07/23 00:12:37;;;;;;;;;14.25;10.75;;;;;;;;8888947;40;10434;-63
2021/07/23 00:18:39;;;;;;;;;13.75;13.25;;;;;;;;8896518;40;10785;-65
2021/07/23 00:24:41;;;;;;;;;15.00;11.75;;;;;;;;8896205;40;10717;-64
2021/07/23 00:30:43;;;;;;;;;12.50;10.25;;;;;;;;8896796;40;10485;-64
2021/07/23 00:36:47;;;;;;;;;14.25;11.25;;;;;;;;8896335;40;10608;-65
2021/07/23 00:42:49;;;;;;;;;11.75;11.75;;;;;;;;8896681;40;10623;-64
2021/07/23 00:48:52;;;;;;;;;17.00;14.50;;;;;;;;8896317;40;10761;-64
2021/07/23 00:54:56;;;;;;;;;14.75;13.75;;;;;;;;8896350;40;10478;-65
2021/07/23 01:01:00;;;;;;;;;11.00;10.25;;;;;;;;8897471;40;10738;-63
2021/07/23 01:07:07;;;;;;;;;14.00;14.00;;;;;;;;8860912;40;11741;-64
2021/07/23 01:13:11;;;;;;;;;10.50;8.25;;;;;;;;8869846;40;11279;-64
2021/07/23 01:19:18;;;;;;;;;13.25;12.25;;;;;;;;8868768;40;10605;-64
2021/07/23 01:25:22;;;;;;;;;14.25;14.25;;;;;;;;8870438;40;10720;-63
2021/07/23 01:31:24;;;;;;;;;13.00;11.50;;;;;;;;8869185;40;10782;-63
2021/07/23 01:37:28;;;;;;;;;15.00;12.25;;;;;;;;8869005;40;10579;-64
2021/07/23 01:43:32;;;;;;;;;13.75;12.50;;;;;;;;8876000;40;10978;-63
2021/07/23 01:49:36;;;;;;;;;15.00;13.25;;;;;;;;8872296;40;11048;-64
2021/07/23 01:55:42;;;;;;;;;12.00;12.00;;;;;;;;8872892;40;10697;-63
2021/07/23 02:01:44;;;;;;;;;12.50;11.50;;;;;;;;8875013;40;10617;-63
2021/07/23 02:07:57;;;;;;;;;13.25;11.00;;;;;;;;8872866;40;11022;-64
2021/07/23 02:14:03;;;;;;;;;14.75;13.50;;;;;;;;8874100;40;11404;-64
2021/07/23 02:20:06;;;;;;;;;14.00;14.00;;;;;;;;8871667;40;10764;-65
2021/07/23 02:26:16;;;;;;;;;15.00;13.50;;;;;;;;8864409;40;10656;-64
2021/07/23 02:32:19;;;;;;;;;11.25;9.50;;;;;;;;8873273;40;11561;-64
2021/07/23 02:38:21;;;;;;;;;12.00;12.00;;;;;;;;8872906;40;10502;-64
2021/07/23 02:44:31;;;;;;;;;14.25;11.50;;;;;;;;8872345;40;10881;-64
2021/07/23 02:50:33;;;;;;;;;14.50;14.00;;;;;;;;8871652;40;11153;-64
2021/07/23 02:56:36;;;;;;;;;14.50;14.25;;;;;;;;8872227;40;10784;-63
2021/07/23 03:02:40;;;;;;;;;15.00;14.00;;;;;;;;8870956;40;10933;-63
2021/07/23 03:08:44;;;;;;;;;13.33;13.33;;;;;;;;8898021;40;10265;-64
2021/07/23 03:14:48;;;;;;;;;14.25;14.25;;;;;;;;8888643;40;11325;-65
2021/07/23 03:20:59;;;;;;;;;15.00;12.75;;;;;;;;8897009;40;10644;-62
2021/07/23 03:27:02;;;;;;;;;15.25;13.25;;;;;;;;8888896;40;10574;-64
2021/07/23 03:33:12;;;;;;;;;15.00;13.67;;;;;;;;8888967;40;10574;-64
2021/07/23 03:39:16;;;;;;;;;13.50;12.50;;;;;;;;8897554;40;10575;-63
2021/07/23 03:45:19;;;;;;;;;14.75;13.50;;;;;;;;8897395;40;10733;-64
2021/07/23 03:51:32;;;;;;;;;16.00;14.67;;;;;;;;8896017;40;10418;-64
2021/07/23 03:57:34;;;;;;;;;18.00;15.00;;;;;;;;8873606;40;10852;-64
2021/07/23 04:03:43;;;;;;;;;15.25;13.00;;;;;;;;9978352;22;10628;-63
2021/07/23 04:09:49;;;;;;;;;16.25;14.50;;;;;;;;8887265;40;10631;-64
2021/07/23 04:15:54;;;;;;;;;17.67;16.33;;;;;;;;8899635;40;10099;-64
2021/07/23 04:22:03;;;;;;;;;14.50;13.00;;;;;;;;8880082;40;10724;-64
2021/07/23 04:28:35;;;;;;;;;19.00;19.00;;;;;;;;8899123;40;10330;-64
2021/07/23 04:34:37;;;;;;;;;20.00;20.00;;;;;;;;8897269;40;10638;-64
2021/07/23 04:40:46;;;;;;;;;12.25;11.00;;;;;;;;8887636;40;10732;-64
2021/07/23 04:47:00;;;;;;;;;15.00;13.50;;;;;;;;8888303;40;10521;-64
2021/07/23 04:53:05;;;;;;;;;13.75;13.75;;;;;;;;8885510;40;10539;-64
2021/07/23 04:59:25;;;;;;;;;20.25;19.00;;;;;;;;8872340;40;10951;-64
2021/07/23 05:05:30;;;;;;;;;19.75;17.75;;;;;;;;8872683;40;10640;-65
2021/07/23 05:11:34;;;;;;;;;19.50;17.00;;;;;;;;8877046;40;10799;-63
2021/07/23 05:17:38;;;;;;;;;15.00;13.75;;;;;;;;8900468;40;10493;-63
2021/07/23 05:23:42;;;;;;;;;18.25;17.75;;;;;;;;8874814;40;10489;-62
2021/07/23 05:29:44;;;;;;;;;17.75;17.00;;;;;;;;8888773;40;10555;-62
2021/07/23 05:35:46;;;;;;;;;16.50;15.25;;;;;;;;8880263;40;10411;-63
2021/07/23 05:41:48;;;;;;;;;15.00;15.00;;;;;;;;8879334;40;10623;-62
2021/07/23 05:47:50;;;;;;;;;16.25;16.00;;;;;;;;8894929;40;10985;-64
2021/07/23 05:53:52;;;;;;;;;13.25;11.25;;;;;;;;8891202;40;10664;-63
2021/07/23 05:59:54;;;;;;;;;13.75;12.25;;;;;;;;8880534;40;10325;-62
2021/07/23 06:05:56;;;;;;;;;14.00;14.00;;;;;;;;8895626;40;10512;-64
2021/07/23 06:11:59;;;;;;;;;13.25;13.25;;;;;;;;8892610;40;10373;-62
2021/07/23 06:18:02;;;;;;;;;18.75;14.75;;;;;;;;8883865;40;10406;-63
2021/07/23 06:24:05;;;;;;;;;16.00;16.00;;;;;;;;8884115;40;10357;-62
2021/07/23 06:30:07;;;;;;;;;14.25;12.75;;;;;;;;8882266;40;10265;-64
2021/07/23 06:36:09;;;;;;;;;13.50;13.50;;;;;;;;8875501;40;10298;-63
2021/07/23 06:42:12;;;;;;;;;6.75;6.75;;;;;;;;8889051;40;10345;-64
2021/07/23 06:48:14;;;;;;;;;11.50;11.50;;;;;;;;8894291;40;10510;-64
2021/07/23 06:54:16;;;;;;;;;10.25;10.25;;;;;;;;8890350;40;10222;-64
2021/07/23 07:00:18;;;;;;;;;8.75;8.75;;;;;;;;8888343;40;10330;-63
2021/07/23 07:06:20;;;;;;;;;15.50;13.25;;;;;;;;8888261;40;10413;-65
2021/07/23 07:12:22;;;;;;;;;10.50;10.50;;;;;;;;8877430;40;10162;-66
2021/07/23 07:18:26;;;;;;;;;13.25;11.50;;;;;;;;8883137;40;10410;-66
2021/07/23 07:24:28;;;;;;;;;9.25;8.00;;;;;;;;8882795;40;10918;-66
2021/07/23 07:30:30;;;;;;;;;13.00;10.00;;;;;;;;8887258;40;10240;-64
2021/07/23 07:36:33;;;;;;;;;9.00;9.00;;;;;;;;8886108;40;10417;-67
2021/07/23 07:42:35;;;;;;;;;9.00;9.00;;;;;;;;8890155;40;10005;-65
2021/07/23 07:48:39;;;;;;;;;8.75;8.75;;;;;;;;8888821;40;10416;-66
2021/07/23 07:54:41;;;;;;;;;6.75;6.75;;;;;;;;8891125;40;10316;-66
2021/07/23 08:00:43;;;;;;;;;8.25;8.25;;;;;;;;8882876;40;10290;-65
2021/07/23 08:06:45;;;;;;;;;8.50;8.50;;;;;;;;8885760;40;10355;-65
2021/07/23 08:12:48;;;;;;;;;8.75;7.25;;;;;;;;8876435;40;10166;-66
2021/07/23 08:18:51;;;;;;;;;9.25;7.25;;;;;;;;8885841;40;10430;-67
2021/07/23 08:24:55;;;;;;;;;10.00;10.00;;;;;;;;8876930;40;10288;-65
2021/07/23 08:30:58;;;;;;;;;7.75;7.00;;;;;;;;8883755;40;10160;-67
2021/07/23 08:37:00;;;;;;;;;9.25;7.75;;;;;;;;8889762;40;10806;-65
2021/07/23 08:43:05;;;;;;;;;9.75;8.00;;;;;;;;8885931;40;10350;-63
2021/07/23 08:49:07;;;;;;;;;6.00;6.00;;;;;;;;8865993;40;10432;-65
2021/07/23 08:55:12;;;;;;;;;11.75;10.50;;;;;;;;8883037;40;10252;-65
2021/07/23 09:01:14;;;;;;;;;7.75;7.75;;;;;;;;8881546;40;10800;-65
2021/07/23 09:07:17;;;;;;;;;7.25;7.25;;;;;;;;8888717;40;10788;-64
2021/07/23 09:13:23;;;;;;;;;11.00;10.75;;;;;;;;8889050;40;10319;-64
2021/07/23 09:19:25;;;;;;;;;7.25;6.50;;;;;;;;8890508;40;10314;-65
2021/07/23 09:25:42;;;;;;;;;9.25;9.25;;;;;;;;8883720;40;10227;-63
2021/07/23 09:32:07;;;;;;;;;12.50;11.00;;;;;;;;8868016;40;10611;-65
2021/07/23 09:38:10;;;;;;;;;7.75;7.75;;;;;;;;8885950;40;10399;-64
2021/07/23 09:44:15;;;;;;;;;15.50;12.25;;;;;;;;8881202;40;10216;-63
2021/07/23 09:50:17;;;;;;;;;12.25;12.25;;;;;;;;8886174;40;10736;-63
2021/07/23 09:56:22;;;;;;;;;13.00;11.00;;;;;;;;8894075;40;10946;-64
2021/07/23 10:02:27;;;;;;;;;10.75;9.00;;;;;;;;8873526;40;10156;-65
2021/07/23 10:08:47;;;;;;;;;7.50;7.50;;;;;;;;8881056;40;10423;-63
2021/07/23 10:14:51;;;;;;;;;13.25;13.25;;;;;;;;8881536;40;10223;-64
2021/07/23 10:20:53;;;;;;;;;9.75;9.75;;;;;;;;8889557;40;11207;-64
2021/07/23 10:26:56;;;;;;;;;9.75;9.25;;;;;;;;8866089;40;11053;-64
2021/07/23 10:32:59;;;;;;;;;14.25;13.50;;;;;;;;8877186;40;10301;-66
2021/07/23 10:39:19;;;;;;;;;11.25;11.25;;;;;;;;8888076;40;10232;-64
2021/07/23 10:45:21;;;;;;;;;8.00;8.00;;;;;;;;8874886;40;10098;-64
2021/07/23 10:51:49;;;;;;;;;8.75;8.75;;;;;;;;8862629;40;10290;-64
2021/07/23 10:58:08;;;;;;;;;12.00;12.00;;;;;;;;8876277;40;10303;-64
2021/07/23 11:04:18;;;;;;;;;10.50;8.25;;;;;;;;8869540;40;10370;-64
2021/07/23 11:10:20;;;;;;;;;13.00;12.25;;;;;;;;8878183;40;10350;-65
2021/07/23 11:16:27;;;;;;;;;8.25;7.25;;;;;;;;8887147;40;10752;-63
2021/07/23 11:22:32;;;;;;;;;11.00;8.50;;;;;;;;8888098;40;10255;-65
2021/07/23 11:28:53;;;;;;;;;10.25;10.00;;;;;;;;8889368;40;10147;-64
2021/07/23 11:35:08;;;;;;;;;8.75;7.50;;;;;;;;8890136;40;11094;-65
2021/07/23 11:41:10;;;;;;;;;10.50;9.75;;;;;;;;8893641;40;10241;-64
2021/07/23 11:47:12;;;;;;;;;11.75;9.25;;;;;;;;8894180;40;10237;-64
2021/07/23 11:53:15;;;;;;;;;8.75;8.75;;;;;;;;8872437;40;10293;-65
2021/07/23 11:59:18;;;;;;;;;8.00;7.75;;;;;;;;8868314;40;10413;-64
2021/07/23 12:05:21;;;;;;;;;13.75;11.00;;;;;;;;8888668;40;10374;-65
2021/07/23 12:11:24;;;;;;;;;7.50;6.75;;;;;;;;8878868;40;10797;-64
2021/07/23 12:17:40;;;;;;;;;8.75;7.50;;;;;;;;8873789;40;10192;-65
2021/07/23 12:23:43;;;;;;;;;13.00;10.75;;;;;;;;8874488;40;10868;-65
2021/07/23 12:29:46;;;;;;;;;11.75;10.75;;;;;;;;8885717;40;10589;-65
2021/07/23 12:35:58;;;;;;;;;11.50;11.25;;;;;;;;8885805;40;10848;-65
2021/07/23 12:42:19;;;;;;;;;11.50;10.75;;;;;;;;8887757;40;10274;-66
2021/07/23 12:48:22;;;;;;;;;12.50;12.00;;;;;;;;8891912;40;10308;-66
2021/07/23 12:54:39;;;;;;;;;13.50;10.50;;;;;;;;8891463;40;10253;-64
2021/07/23 13:00:41;;;;;;;;;10.25;9.50;;;;;;;;8889477;40;10293;-66
2021/07/23 13:06:45;;;;;;;;;9.50;9.50;;;;;;;;8889832;40;10162;-66
2021/07/23 13:12:48;;;;;;;;;10.00;10.00;;;;;;;;8892228;40;10212;-65
2021/07/23 13:18:50;;;;;;;;;10.50;8.50;;;;;;;;8883173;40;10219;-65
2021/07/23 13:24:53;;;;;;;;;8.25;8.00;;;;;;;;8874108;40;10080;-65
2021/07/23 13:30:55;;;;;;;;;10.75;10.25;;;;;;;;8883160;40;10182;-65
2021/07/23 13:37:00;;;;;;;;;11.25;10.50;;;;;;;;8893806;40;10441;-66
2021/07/23 13:43:07;;;;;;;;;8.25;8.25;;;;;;;;8887975;40;10260;-64
2021/07/23 13:49:09;;;;;;;;;13.25;10.75;;;;;;;;8882044;40;10260;-64
2021/07/23 13:55:11;;;;;;;;;11.75;9.00;;;;;;;;8868575;40;10262;-62
2021/07/23 14:01:13;;;;;;;;;15.75;14.25;;;;;;;;8870691;40;10335;-63
2021/07/23 14:07:16;;;;;;;;;10.25;10.25;;;;;;;;8861571;40;10256;-66
2021/07/23 14:13:18;;;;;;;;;13.00;12.00;;;;;;;;8867359;40;10310;-67
2021/07/23 14:19:21;;;;;;;;;12.00;12.00;;;;;;;;8875882;40;10299;-66
2021/07/23 14:25:23;;;;;;;;;11.75;11.75;;;;;;;;8893863;40;10218;-67
2021/07/23 14:31:25;;;;;;;;;11.00;11.00;;;;;;;;8898163;40;10151;-66
2021/07/23 14:37:27;;;;;;;;;12.00;10.25;;;;;;;;8896849;40;10246;-67
2021/07/23 14:43:29;;;;;;;;;11.00;11.00;;;;;;;;8899465;40;10232;-66
2021/07/23 14:49:32;;;;;;;;;11.00;9.50;;;;;;;;8897194;40;10286;-67
2021/07/23 14:55:34;;;;;;;;;11.75;11.75;;;;;;;;8898109;40;10254;-66
2021/07/23 15:01:36;;;;;;;;;11.00;8.00;;;;;;;;8897851;40;10267;-66
2021/07/23 15:07:41;;;;;;;;;12.50;10.25;;;;;;;;8885631;40;10941;-66
2021/07/23 15:13:43;;;;;;;;;9.25;9.25;;;;;;;;8885479;40;10346;-67
2021/07/23 15:19:48;;;;;;;;;9.25;9.25;;;;;;;;8895057;40;10963;-67
2021/07/23 15:25:50;;;;;;;;;12.00;11.00;;;;;;;;8894899;40;10466;-67
2021/07/23 15:31:54;;;;;;;;;12.50;11.50;;;;;;;;8895234;40;10203;-68
2021/07/23 15:37:56;;;;;;;;;14.00;11.50;;;;;;;;8895195;40;10443;-67
2021/07/23 15:43:58;;;;;;;;;13.25;12.25;;;;;;;;8895603;40;10249;-67
2021/07/23 15:50:00;;;;;;;;;11.50;11.25;;;;;;;;8894609;40;10255;-68
2021/07/23 15:56:07;;;;;;;;;11.75;11.75;;;;;;;;8894070;40;10156;-67
2021/07/23 16:02:09;;;;;;;;;9.75;9.75;;;;;;;;8895113;40;10234;-67
2021/07/23 16:08:12;;;;;;;;;11.25;11.25;;;;;;;;8885418;40;10303;-67
2021/07/23 16:14:15;;;;;;;;;13.00;12.00;;;;;;;;8895016;40;10795;-66
2021/07/23 16:20:20;;;;;;;;;11.75;11.75;;;;;;;;8885562;40;10464;-66
2021/07/23 16:26:23;;;;;;;;;15.00;12.25;;;;;;;;8895017;40;10971;-67
2021/07/23 16:32:25;;;;;;;;;15.50;15.00;;;;;;;;8894419;40;10202;-69
2021/07/23 16:38:31;;;;;;;;;12.75;12.50;;;;;;;;8883787;40;10313;-66
2021/07/23 16:44:34;;;;;;;;;11.50;11.50;;;;;;;;8884268;40;10264;-67
2021/07/23 16:50:37;;;;;;;;;7.00;7.00;;;;;;;;8883899;40;10211;-67
2021/07/23 16:56:39;;;;;;;;;11.00;11.00;;;;;;;;8894076;40;10225;-68
2021/07/23 17:02:41;;;;;;;;;13.50;12.00;;;;;;;;8893412;40;10966;-66
2021/07/23 17:08:44;;;;;;;;;12.50;12.50;;;;;;;;8894030;40;10261;-66
2021/07/23 17:14:46;;;;;;;;;21.50;15.00;;;;;;;;8887796;40;10752;-66
2021/07/23 17:20:50;;;;;;;;;16.00;15.00;;;;;;;;8887496;40;10798;-66
2021/07/23 17:26:54;;;;;;;;;14.25;12.25;;;;;;;;8897379;40;10219;-65
2021/07/23 17:32:56;;;;;;;;;14.00;12.75;;;;;;;;8896957;40;10354;-67
2021/07/23 17:38:58;;;;;;;;;11.75;11.00;;;;;;;;8896564;40;10224;-66
2021/07/23 17:45:18;;;;;;;;;16.00;13.25;;;;;;;;8897229;40;10300;-65
2021/07/23 17:51:20;;;;;;;;;14.25;14.25;;;;;;;;8896216;40;10210;-67
2021/07/23 17:57:23;;;;;;;;;14.00;12.00;;;;;;;;8896378;40;10236;-67
2021/07/23 18:03:26;;;;;;;;;14.25;12.75;;;;;;;;8897097;40;10173;-67
2021/07/23 18:09:28;;;;;;;;;14.50;13.50;;;;;;;;8896689;40;10180;-66
2021/07/23 18:15:30;;;;;;;;;10.75;10.00;;;;;;;;8887590;40;10417;-66
2021/07/23 18:21:32;;;;;;;;;15.00;15.00;;;;;;;;8886545;40;10989;-65
2021/07/23 18:27:35;;;;;;;;;18.25;17.50;;;;;;;;8886483;40;10430;-66
2021/07/23 18:33:37;;;;;;;;;21.00;18.50;;;;;;;;8895966;40;10914;-66
2021/07/23 18:39:39;;;;;;;;;17.00;15.50;;;;;;;;8885471;40;10362;-67
2021/07/23 18:45:42;;;;;;;;;16.00;14.50;;;;;;;;8886617;40;10615;-66
2021/07/23 18:51:44;;;;;;;;;21.00;19.50;;;;;;;;8877954;40;10426;-66
2021/07/23 18:57:46;;;;;;;;;18.25;16.00;;;;;;;;8896078;40;10316;-65
2021/07/23 19:03:49;;;;;;;;;18.50;14.75;;;;;;;;8895589;40;10194;-66
2021/07/23 19:09:54;;;;;;;;;19.75;17.75;;;;;;;;8893486;40;10289;-67
2021/07/23 19:15:57;;;;;;;;;20.50;19.75;;;;;;;;8895072;40;10570;-67
2021/07/23 19:22:00;;;;;;;;;18.00;18.00;;;;;;;;8894399;40;10714;-69
2021/07/23 19:28:04;;;;;;;;;24.25;24.25;;;;;;;;8884755;40;10583;-67
2021/07/23 19:34:13;;;;;;;;;16.00;14.50;;;;;;;;8894870;40;10494;-66
2021/07/23 19:40:16;;;;;;;;;19.75;16.25;;;;;;;;8885547;40;10525;-66
2021/07/23 19:46:18;;;;;;;;;21.50;19.50;;;;;;;;8885245;40;10445;-65
2021/07/23 19:52:20;;;;;;;;;22.25;20.00;;;;;;;;8894149;40;10375;-66
2021/07/23 19:58:23;;;;;;;;;18.75;17.00;;;;;;;;8885300;40;10514;-66
2021/07/23 20:04:26;;;;;;;;;16.25;15.25;;;;;;;;8894238;40;10312;-66
2021/07/23 20:10:28;;;;;;;;;16.75;16.75;;;;;;;;8892990;40;10453;-66
2021/07/23 20:16:31;;;;;;;;;23.50;20.75;;;;;;;;8894708;40;11040;-67
2021/07/23 20:22:33;;;;;;;;;22.00;19.50;;;;;;;;8893277;40;10436;-66
2021/07/23 20:28:35;;;;;;;;;17.00;15.75;;;;;;;;8883637;40;10344;-66
2021/07/23 20:34:39;;;;;;;;;16.75;14.75;;;;;;;;8893694;40;10332;-67
2021/07/23 20:40:42;;;;;;;;;15.50;13.75;;;;;;;;8883643;40;10341;-66
2021/07/23 20:46:44;;;;;;;;;14.50;13.50;;;;;;;;8896142;40;10888;-67
2021/07/23 20:52:46;;;;;;;;;17.00;16.00;;;;;;;;8887511;40;10370;-66
2021/07/23 20:58:48;;;;;;;;;20.50;17.25;;;;;;;;8890988;39;10906;-66
2021/07/23 21:04:50;;;;;;;;;20.25;16.50;;;;;;;;8888325;40;10406;-65
2021/07/23 21:10:53;;;;;;;;;15.75;15.00;;;;;;;;8896925;40;10516;-65
2021/07/23 21:16:55;;;;;;;;;14.00;14.00;;;;;;;;8897339;40;10472;-65
2021/07/23 21:22:57;;;;;;;;;16.25;16.25;;;;;;;;8888315;40;10433;-65
2021/07/23 21:28:59;;;;;;;;;20.75;16.50;;;;;;;;8896641;40;10624;-66
2021/07/23 21:35:03;;;;;;;;;23.75;22.75;;;;;;;;8896746;40;10438;-69
2021/07/23 21:41:05;;;;;;;;;21.75;21.75;;;;;;;;8886984;40;11511;-65
2021/07/23 21:47:08;;;;;;;;;24.75;21.50;;;;;;;;8897097;40;10526;-65
2021/07/23 21:53:11;;;;;;;;;27.50;25.75;;;;;;;;8896901;40;11494;-67
2021/07/23 21:59:13;;;;;;;;;26.25;23.00;;;;;;;;8898070;40;10713;-66
2021/07/23 22:05:17;;;;;;;;;28.50;26.50;;;;;;;;8887024;40;10563;-67
2021/07/23 22:11:19;;;;;;;;;29.00;26.50;;;;;;;;8897030;40;10946;-66
2021/07/23 22:17:23;;;;;;;;;30.75;27.50;;;;;;;;8897708;40;10630;-66
2021/07/23 22:23:28;;;;;;;;;24.75;22.25;;;;;;;;8896539;40;10760;-66
2021/07/23 22:29:30;;;;;;;;;25.50;21.50;;;;;;;;8894455;40;10448;-67
2021/07/23 22:35:32;;;;;;;;;20.00;20.00;;;;;;;;8895061;40;10661;-66
2021/07/23 22:41:36;;;;;;;;;19.50;18.25;;;;;;;;8895444;40;11200;-66
2021/07/23 22:47:38;;;;;;;;;18.00;16.00;;;;;;;;8896134;40;10422;-66
2021/07/23 22:53:40;;;;;;;;;17.25;14.00;;;;;;;;8895899;40;10517;-66
2021/07/23 22:59:42;;;;;;;;;15.25;13.75;;;;;;;;8896757;40;10387;-65
2021/07/23 23:05:47;;;;;;;;;18.75;16.75;;;;;;;;8896095;40;10503;-67
2021/07/23 23:11:49;;;;;;;;;23.00;21.00;;;;;;;;8894784;40;10645;-66
2021/07/23 23:17:51;;;;;;;;;24.50;23.75;;;;;;;;8886036;40;12695;-66
2021/07/23 23:23:53;;;;;;;;;18.50;17.75;;;;;;;;8895083;40;10616;-67
2021/07/23 23:29:55;;;;;;;;;22.75;20.50;;;;;;;;8895157;40;10896;-65
2021/07/23 23:36:11;;;;;;;;;20.50;20.50;;;;;;;;8895021;40;11496;-66
2021/07/23 23:42:13;;;;;;;;;27.75;23.75;;;;;;;;8895091;40;10705;-66
2021/07/23 23:48:15;;;;;;;;;21.50;20.25;;;;;;;;8894738;40;10639;-66
2021/07/23 23:54:17;;;;;;;;;20.25;19.00;;;;;;;;8894400;40;10687;-66
